createdAt,value
2019-05-22T00:00:14.793Z,24.50
2019-05-22T00:05:11.564Z,21.50
2019-05-22T00:10:00.245Z,24.60
2019-05-22T00:14:54.160Z,25.20
2019-05-22T00:19:45.763Z,28.00
2019-05-22T00:24:41.762Z,24.70
2019-05-22T00:44:08.453Z,25.80
2019-05-22T00:49:00.701Z,24.20
2019-05-22T00:53:52.528Z,26.00
2019-05-22T00:58:44.232Z,23.50
2019-05-22T01:03:36.435Z,22.50
2019-05-22T01:08:28.719Z,22.70
2019-05-22T01:13:23.185Z,21.90
2019-05-22T01:18:14.561Z,22.10
2019-05-22T01:23:05.939Z,23.10
2019-05-22T01:27:57.677Z,21.70
2019-05-22T01:32:49.136Z,22.60
2019-05-22T01:47:23.519Z,24.70
2019-05-22T01:52:14.948Z,26.70
2019-05-22T01:57:06.914Z,23.60
2019-05-22T02:02:10.774Z,79.40
2019-05-22T02:07:02.539Z,26.70
2019-05-22T02:11:53.894Z,24.20
2019-05-22T02:16:55.885Z,25.20
2019-05-22T02:21:36.932Z,28.50
2019-05-22T02:26:29.205Z,25.30
2019-05-22T02:31:30.579Z,27.20
2019-05-22T02:36:22.672Z,22.50
2019-05-22T02:41:14.590Z,28.20
2019-05-22T02:46:05.956Z,28.70
2019-05-22T02:50:57.598Z,24.00
2019-05-22T02:55:49.245Z,30.90
2019-05-22T03:00:40.923Z,26.80
2019-05-22T03:05:32.657Z,23.80
2019-05-22T03:10:24.563Z,23.80
2019-05-22T03:15:16.509Z,22.80
2019-05-22T03:20:08.188Z,21.70
2019-05-22T03:25:02.419Z,24.50
2019-05-22T03:29:56.327Z,24.60
2019-05-22T03:34:48.604Z,22.00
2019-05-22T03:39:39.965Z,23.40
2019-05-22T03:44:32.201Z,21.90
2019-05-22T03:49:30.247Z,22.30
2019-05-22T03:54:17.996Z,22.80
2019-05-22T03:59:10.010Z,22.30
2019-05-22T04:04:01.473Z,22.70
2019-05-22T04:08:53.480Z,19.80
2019-05-22T04:13:45.222Z,20.90
2019-05-22T04:18:37.141Z,20.60
2019-05-22T04:23:28.669Z,21.10
2019-05-22T04:28:20.612Z,21.60
2019-05-22T04:33:12.111Z,21.80
2019-05-22T04:38:03.954Z,19.70
2019-05-22T04:42:57.514Z,26.00
2019-05-22T04:47:51.220Z,21.70
2019-05-22T04:52:45.434Z,23.60
2019-05-22T04:57:37.202Z,24.10
2019-05-22T05:02:32.576Z,30.60
2019-05-22T05:07:24.331Z,27.50
2019-05-22T05:12:18.562Z,24.00
2019-05-22T05:17:12.640Z,22.90
2019-05-22T05:22:06.639Z,25.80
2019-05-22T05:26:58.028Z,24.30
2019-05-22T05:31:51.678Z,23.10
2019-05-22T05:36:45.923Z,29.20
2019-05-22T05:41:37.534Z,26.00
2019-05-22T05:46:33.566Z,21.50
2019-05-22T05:51:27.210Z,22.30
2019-05-22T05:56:18.673Z,21.90
2019-05-22T06:01:12.228Z,23.10
2019-05-22T06:06:03.633Z,23.30
2019-05-22T06:10:55.005Z,23.00
2019-05-22T06:15:47.741Z,24.40
2019-05-22T06:20:37.875Z,21.40
2019-05-22T06:25:31.545Z,23.70
2019-05-22T06:30:22.876Z,21.50
2019-05-22T06:35:14.338Z,22.90
2019-05-22T06:40:07.945Z,21.60
2019-05-22T06:45:01.849Z,19.30
2019-05-22T06:49:52.974Z,21.80
2019-05-22T06:54:44.406Z,22.20
2019-05-22T06:59:35.772Z,21.70
2019-05-22T07:04:29.413Z,22.10
2019-05-22T07:09:20.817Z,24.80
2019-05-22T07:14:12.312Z,21.90
2019-05-22T07:19:03.605Z,22.10
2019-05-22T07:23:54.928Z,22.30
2019-05-22T07:28:46.407Z,22.50
2019-05-22T07:33:37.767Z,20.30
2019-05-22T07:38:29.101Z,20.40
2019-05-22T07:43:20.422Z,50.60
2019-05-22T07:48:12.204Z,22.40
2019-05-22T07:53:05.486Z,20.70
2019-05-22T07:57:56.886Z,17.60
2019-05-22T08:02:48.229Z,19.50
2019-05-22T08:07:39.883Z,16.30
2019-05-22T08:12:31.094Z,16.80
2019-05-22T08:17:24.713Z,17.00
2019-05-22T08:22:16.037Z,16.40
2019-05-22T08:27:09.765Z,17.40
2019-05-22T08:32:05.731Z,18.40
2019-05-22T08:36:57.094Z,16.70
2019-05-22T08:41:48.446Z,15.40
2019-05-22T08:46:39.847Z,14.20
2019-05-22T08:51:31.265Z,14.10
2019-05-22T08:56:24.926Z,12.30
2019-05-22T09:01:16.309Z,12.60
2019-05-22T09:06:07.728Z,11.30
2019-05-22T09:10:59.119Z,11.30
2019-05-22T09:15:50.547Z,10.60
2019-05-22T09:20:49.100Z,10.80
2019-05-22T09:25:33.263Z,13.60
2019-05-22T09:30:24.703Z,10.40
2019-05-22T09:35:16.058Z,11.60
2019-05-22T09:40:07.472Z,10.90
2019-05-22T09:45:01.129Z,10.00
2019-05-22T09:49:52.601Z,10.80
2019-05-22T09:54:43.927Z,12.00
2019-05-22T09:59:35.320Z,8.30
2019-05-22T10:04:26.706Z,11.00
2019-05-22T10:09:18.098Z,15.60
2019-05-22T10:14:11.661Z,11.20
2019-05-22T10:19:07.628Z,12.70
2019-05-22T10:24:03.531Z,9.70
2019-05-22T10:28:57.249Z,12.00
2019-05-22T10:33:51.847Z,10.60
2019-05-22T10:38:40.075Z,9.80
2019-05-22T10:43:31.345Z,8.10
2019-05-22T10:48:22.793Z,7.30
2019-05-22T10:53:14.102Z,7.50
2019-05-22T10:58:05.483Z,8.10
2019-05-22T11:02:56.873Z,8.20
2019-05-22T11:07:48.317Z,6.00
2019-05-22T11:12:39.685Z,9.60
2019-05-22T11:17:31.009Z,9.00
2019-05-22T11:22:22.475Z,6.50
2019-05-22T11:27:16.154Z,7.60
2019-05-22T11:32:07.493Z,8.70
2019-05-22T11:36:58.822Z,6.40
2019-05-22T11:41:50.284Z,4.90
2019-05-22T11:46:41.695Z,6.80
2019-05-22T11:51:32.985Z,8.10
2019-05-22T11:56:24.438Z,7.60
2019-05-22T12:01:15.738Z,8.60
2019-05-22T12:06:07.199Z,7.50
2019-05-22T12:10:58.545Z,5.70
2019-05-22T12:15:50.040Z,8.30
2019-05-22T12:20:41.352Z,8.80
2019-05-22T12:25:37.924Z,6.90
2019-05-22T12:30:24.054Z,7.00
2019-05-22T12:35:15.501Z,8.70
2019-05-22T12:40:09.071Z,6.60
2019-05-22T12:45:00.542Z,7.80
2019-05-22T12:49:51.846Z,6.60
2019-05-22T12:54:52.352Z,7.40
2019-05-22T12:59:39.158Z,6.90
2019-05-22T13:04:30.608Z,6.40
2019-05-22T13:09:21.913Z,6.50
2019-05-22T13:14:13.353Z,7.20
2019-05-22T13:19:04.690Z,6.30
2019-05-22T13:23:56.166Z,9.20
2019-05-22T13:28:47.515Z,7.30
2019-05-22T13:34:01.565Z,6.20
2019-05-22T13:38:53.004Z,5.40
2019-05-22T13:43:44.347Z,5.70
2019-05-22T13:48:35.788Z,5.50
2019-05-22T13:53:27.097Z,6.80
2019-05-22T13:58:20.797Z,2.90
2019-05-22T14:03:12.261Z,4.00
2019-05-22T14:08:03.630Z,6.00
2019-05-22T14:12:54.996Z,6.70
2019-05-22T14:17:46.471Z,3.20
2019-05-22T14:22:42.352Z,2.50
2019-05-22T14:27:33.752Z,2.40
2019-05-22T14:32:29.642Z,2.80
2019-05-22T14:37:16.543Z,4.60
2019-05-22T14:42:07.883Z,3.30
2019-05-22T14:47:12.137Z,3.60
2019-05-22T14:51:50.685Z,4.40
2019-05-22T14:56:42.089Z,4.20
2019-05-22T15:01:33.425Z,5.20
2019-05-22T15:06:24.881Z,7.90
2019-05-22T15:11:20.768Z,6.20
2019-05-22T15:16:12.211Z,4.90
2019-05-22T15:21:03.517Z,5.40
2019-05-22T15:25:54.925Z,3.90
2019-05-22T15:30:46.272Z,4.80
2019-05-22T15:35:37.755Z,5.60
2019-05-22T15:40:29.092Z,5.80
2019-05-22T15:45:20.464Z,4.50
2019-05-22T15:50:11.856Z,6.70
2019-05-22T15:55:03.313Z,6.80
2019-05-22T15:59:56.889Z,7.00
2019-05-22T16:04:50.582Z,6.70
2019-05-22T16:09:44.211Z,5.60
2019-05-22T16:14:38.443Z,5.60
2019-05-22T16:19:36.105Z,7.80
2019-05-22T16:24:27.479Z,7.70
2019-05-22T16:29:18.981Z,5.10
2019-05-22T16:34:12.662Z,7.20
2019-05-22T16:39:04.082Z,4.90
2019-05-22T16:43:57.688Z,6.30
2019-05-22T16:48:51.381Z,4.60
2019-05-22T16:53:42.766Z,4.60
2019-05-22T16:58:34.132Z,7.20
2019-05-22T17:03:25.482Z,6.30
2019-05-22T17:08:16.916Z,4.00
2019-05-22T17:13:11.917Z,3.80
2019-05-22T17:18:04.207Z,4.40
2019-05-22T17:22:57.844Z,3.70
2019-05-22T17:27:49.399Z,5.30
2019-05-22T17:32:40.585Z,3.60
2019-05-22T17:37:34.321Z,5.90
2019-05-22T17:42:27.894Z,3.90
2019-05-22T17:47:19.399Z,4.40
2019-05-22T17:52:12.212Z,4.20
2019-05-22T17:57:04.405Z,5.30
2019-05-22T18:01:58.026Z,5.30
2019-05-22T18:06:49.578Z,4.70
2019-05-22T18:11:41.108Z,4.90
2019-05-22T18:16:32.545Z,6.10
2019-05-22T18:21:23.912Z,5.60
2019-05-22T18:26:17.633Z,5.90
2019-05-22T18:31:11.224Z,6.10
2019-05-22T18:36:02.633Z,4.80
2019-05-22T18:40:54.022Z,4.90
2019-05-22T18:45:47.702Z,4.80
2019-05-22T18:50:39.018Z,4.80
2019-05-22T18:55:30.430Z,5.40
2019-05-22T19:00:21.805Z,5.60
2019-05-22T19:05:13.256Z,5.00
2019-05-22T19:10:04.581Z,5.40
2019-05-22T19:14:58.218Z,4.80
2019-05-22T19:19:51.916Z,4.20
2019-05-22T19:24:45.553Z,5.50
2019-05-22T19:29:37.037Z,7.40
2019-05-22T19:34:30.704Z,4.70
2019-05-22T19:39:22.072Z,5.00
2019-05-22T19:44:13.465Z,7.20
2019-05-22T19:49:04.827Z,7.40
2019-05-22T19:53:56.198Z,5.90
2019-05-22T19:58:47.629Z,5.40
2019-05-22T20:03:39.073Z,6.40
2019-05-22T20:08:37.260Z,6.00
2019-05-22T20:13:28.608Z,6.30
2019-05-22T20:18:19.994Z,6.30
2019-05-22T20:23:11.785Z,5.50
2019-05-22T20:28:03.538Z,7.10
2019-05-22T20:32:57.497Z,5.60
2019-05-22T20:37:48.928Z,6.00
2019-05-22T20:42:42.578Z,5.50
2019-05-22T20:47:33.916Z,6.90
2019-05-22T20:52:25.903Z,6.30
2019-05-22T20:57:20.172Z,6.40
2019-05-22T21:02:10.042Z,46.60
2019-05-22T21:07:04.004Z,7.40
2019-05-22T21:11:58.046Z,7.20
2019-05-22T21:16:49.509Z,7.10
2019-05-22T21:21:40.884Z,7.00
2019-05-22T21:26:32.251Z,6.40
2019-05-22T21:31:23.622Z,5.90
2019-05-22T21:36:15.039Z,7.10
2019-05-22T21:41:06.383Z,8.10
2019-05-22T21:45:57.765Z,6.10
2019-05-22T21:50:49.136Z,6.00
2019-05-22T21:55:40.571Z,6.30
2019-05-22T22:00:34.236Z,7.50
2019-05-22T22:05:25.610Z,5.50
2019-05-22T22:10:16.931Z,7.00
2019-05-22T22:15:08.365Z,5.80
2019-05-22T22:19:59.760Z,6.90
2019-05-22T22:24:53.415Z,5.80
2019-05-22T22:29:47.030Z,5.50
2019-05-22T22:34:38.605Z,7.00
2019-05-22T22:39:32.266Z,7.70
2019-05-22T22:44:23.681Z,7.30
2019-05-22T22:49:15.081Z,6.60
2019-05-22T22:54:08.850Z,9.10
2019-05-22T22:59:00.267Z,9.10
2019-05-22T23:03:51.557Z,8.40
2019-05-22T23:08:45.274Z,9.00
2019-05-22T23:13:36.651Z,8.20
2019-05-22T23:18:28.136Z,8.40
2019-05-22T23:23:19.374Z,7.80
2019-05-22T23:28:13.154Z,7.20
2019-05-22T23:33:04.576Z,8.40
2019-05-22T23:37:58.314Z,8.90
2019-05-22T23:42:49.611Z,8.70
2019-05-22T23:47:41.034Z,9.10
2019-05-22T23:52:32.372Z,8.10
2019-05-22T23:57:23.849Z,8.90
